createdAt,value
2023-01-20T00:02:19.177Z,97092.78
2023-01-20T00:04:46.169Z,97095.59
2023-01-20T00:07:12.397Z,97096.59
2023-01-20T00:09:38.677Z,97104.44
2023-01-20T00:12:05.152Z,97093.22
2023-01-20T00:14:31.748Z,97099.47
2023-01-20T00:16:58.013Z,97112.63
2023-01-20T00:19:24.285Z,97111.97
2023-01-20T00:21:52.327Z,97112.13
2023-01-20T00:24:21.582Z,97113.88
2023-01-20T00:26:48.019Z,97123.34
2023-01-20T00:29:14.269Z,97125.91
2023-01-20T00:31:41.230Z,97130.28
2023-01-20T00:34:08.194Z,97124.09
2023-01-20T00:36:34.513Z,97135.38
2023-01-20T00:39:00.751Z,97136.09
2023-01-20T00:41:27.188Z,97133.56
2023-01-20T00:43:53.479Z,97145.88
2023-01-20T00:46:20.115Z,97144.78
2023-01-20T00:48:46.570Z,97142.03
2023-01-20T00:51:12.904Z,97141.09
2023-01-20T00:53:39.190Z,97145.25
2023-01-20T00:56:06.160Z,97146.97
2023-01-20T00:58:32.429Z,97157.22
2023-01-20T01:00:59.789Z,97163.00
2023-01-20T01:03:26.789Z,97156.53
2023-01-20T01:05:53.090Z,97155.63
2023-01-20T01:08:19.606Z,97158.75
2023-01-20T01:10:46.687Z,97150.47
2023-01-20T01:13:13.161Z,97151.16
2023-01-20T01:15:39.474Z,97156.09
2023-01-20T01:18:05.747Z,97156.78
2023-01-20T01:20:32.030Z,97161.19
2023-01-20T01:22:59.375Z,97160.03
2023-01-20T01:25:27.214Z,97162.56
2023-01-20T01:27:54.178Z,97167.72
2023-01-20T01:30:20.451Z,97171.03
2023-01-20T01:32:46.809Z,97173.34
2023-01-20T01:35:13.615Z,97181.72
2023-01-20T01:37:40.246Z,97181.63
2023-01-20T01:40:06.580Z,97193.44
2023-01-20T01:42:33.335Z,97195.97
2023-01-20T01:45:00.162Z,97198.25
2023-01-20T01:47:26.477Z,97195.22
2023-01-20T01:49:52.768Z,97201.19
2023-01-20T01:52:19.656Z,97199.22
2023-01-20T01:54:45.893Z,97210.25
2023-01-20T01:57:12.194Z,97201.13
2023-01-20T01:59:38.475Z,97205.06
2023-01-20T02:02:04.864Z,97199.41
2023-01-20T02:04:31.754Z,97201.69
2023-01-20T02:06:59.306Z,97204.78
2023-01-20T02:09:25.714Z,97213.97
2023-01-20T02:11:51.973Z,97210.97
2023-01-20T02:14:19.264Z,97217.53
2023-01-20T02:16:46.168Z,97212.66
2023-01-20T02:19:12.607Z,97212.31
2023-01-20T02:21:39.070Z,97219.88
2023-01-20T02:24:05.780Z,97218.72
2023-01-20T02:26:32.100Z,97219.94
2023-01-20T02:28:58.381Z,97223.28
2023-01-20T02:31:24.731Z,97224.50
2023-01-20T02:33:51.773Z,97221.06
2023-01-20T02:36:18.045Z,97227.00
2023-01-20T02:38:44.340Z,97224.59
2023-01-20T02:41:10.623Z,97225.03
2023-01-20T02:43:36.903Z,97232.38
2023-01-20T02:46:03.229Z,97226.50
2023-01-20T02:48:29.532Z,97228.78
2023-01-20T02:50:55.796Z,97236.34
2023-01-20T02:53:22.719Z,97232.72
2023-01-20T02:55:49.044Z,97235.81
2023-01-20T02:58:15.288Z,97237.88
2023-01-20T03:00:41.544Z,97240.13
2023-01-20T03:03:07.859Z,97242.19
2023-01-20T03:05:34.151Z,97248.91
2023-01-20T03:08:00.439Z,97238.00
2023-01-20T03:10:26.719Z,97245.53
2023-01-20T03:12:53.141Z,97245.16
2023-01-20T03:15:19.550Z,97247.44
2023-01-20T03:17:45.775Z,97251.09
2023-01-20T03:20:14.129Z,97254.78
2023-01-20T03:22:41.394Z,97250.72
2023-01-20T03:25:07.737Z,97254.63
2023-01-20T03:27:34.014Z,97254.81
2023-01-20T03:30:00.289Z,97256.09
2023-01-20T03:32:26.581Z,97259.94
2023-01-20T03:34:53.823Z,97262.81
2023-01-20T03:37:20.074Z,97265.66
2023-01-20T03:39:46.361Z,97276.44
2023-01-20T03:42:12.617Z,97271.56
2023-01-20T03:44:39.192Z,97280.50
2023-01-20T03:47:05.462Z,97289.84
2023-01-20T03:49:31.774Z,97283.41
2023-01-20T03:51:58.743Z,97289.09
2023-01-20T03:54:25.281Z,97291.56
2023-01-20T03:56:51.612Z,97292.00
2023-01-20T03:59:18.747Z,97291.41
2023-01-20T04:01:45.083Z,97296.09
2023-01-20T04:04:11.419Z,97299.75
2023-01-20T04:06:37.725Z,97293.88
2023-01-20T04:09:03.961Z,97300.97
2023-01-20T04:11:30.241Z,97300.19
2023-01-20T04:13:56.554Z,97304.66
2023-01-20T04:16:22.807Z,97295.31
2023-01-20T04:18:49.734Z,97308.94
2023-01-20T04:21:18.796Z,97307.34
2023-01-20T04:23:45.060Z,97309.38
2023-01-20T04:26:11.696Z,97311.19
2023-01-20T04:28:38.904Z,97312.22
2023-01-20T04:31:05.290Z,97314.03
2023-01-20T04:33:34.584Z,97319.53
2023-01-20T04:36:01.539Z,97318.94
2023-01-20T04:38:27.818Z,97325.03
2023-01-20T04:40:54.180Z,97327.06
2023-01-20T04:43:21.548Z,97325.44
2023-01-20T04:45:47.816Z,97324.63
2023-01-20T04:48:14.085Z,97333.38
2023-01-20T04:50:40.337Z,97327.81
2023-01-20T04:53:06.586Z,97338.22
2023-01-20T04:55:32.858Z,97333.09
2023-01-20T04:57:59.860Z,97328.03
2023-01-20T05:00:26.129Z,97342.44
2023-01-20T05:02:52.716Z,97336.22
2023-01-20T05:05:19.814Z,97338.88
2023-01-20T05:07:46.055Z,97342.38
2023-01-20T05:10:13.233Z,97346.66
2023-01-20T05:12:39.740Z,97354.19
2023-01-20T05:15:06.701Z,97357.44
2023-01-20T05:17:33.018Z,97357.09
2023-01-20T05:19:59.349Z,97359.34
2023-01-20T05:22:25.681Z,97363.19
2023-01-20T05:24:51.899Z,97360.97
2023-01-20T05:27:18.167Z,97362.41
2023-01-20T05:29:44.719Z,97365.47
2023-01-20T05:32:11.895Z,97369.31
2023-01-20T05:34:38.167Z,97369.75
2023-01-20T05:37:04.417Z,97365.69
2023-01-20T05:39:30.681Z,97369.78
2023-01-20T05:41:56.967Z,97374.66
2023-01-20T05:44:23.999Z,97369.00
2023-01-20T05:46:50.302Z,97369.41
2023-01-20T05:49:17.178Z,97376.91
2023-01-20T05:51:43.893Z,97381.00
2023-01-20T05:54:10.190Z,97380.38
2023-01-20T05:56:36.644Z,97380.81
2023-01-20T05:59:04.006Z,97384.66
2023-01-20T06:01:30.704Z,97391.75
2023-01-20T06:03:57.481Z,97392.78
2023-01-20T06:06:23.782Z,97404.31
2023-01-20T06:08:50.969Z,97409.78
2023-01-20T06:11:17.418Z,97409.78
2023-01-20T06:13:43.690Z,97414.47
2023-01-20T06:16:09.963Z,97411.22
2023-01-20T06:18:36.842Z,97420.13
2023-01-20T06:21:03.146Z,97420.34
2023-01-20T06:23:29.537Z,97426.63
2023-01-20T06:25:58.206Z,97422.56
2023-01-20T06:28:24.869Z,97430.47
2023-01-20T06:30:51.446Z,97434.91
2023-01-20T06:33:17.786Z,97433.53
2023-01-20T06:35:44.568Z,97438.78
2023-01-20T06:38:10.866Z,97436.38
2023-01-20T06:40:37.151Z,97451.34
2023-01-20T06:43:03.458Z,97452.56
2023-01-20T06:45:29.801Z,97451.16
2023-01-20T06:47:56.799Z,97456.63
2023-01-20T06:50:23.345Z,97455.81
2023-01-20T06:52:49.631Z,97453.38
2023-01-20T06:55:17.314Z,97458.66
2023-01-20T06:57:44.924Z,97459.84
2023-01-20T07:00:11.941Z,97463.50
2023-01-20T07:02:40.343Z,97466.34
2023-01-20T07:05:06.918Z,97464.91
2023-01-20T07:07:33.224Z,97466.94
2023-01-20T07:09:59.535Z,97468.78
2023-01-20T07:12:25.964Z,97467.97
2023-01-20T07:14:52.282Z,97482.16
2023-01-20T07:17:19.214Z,97472.63
2023-01-20T07:19:45.542Z,97478.31
2023-01-20T07:22:11.757Z,97483.69
2023-01-20T07:24:38.042Z,97479.81
2023-01-20T07:27:04.867Z,97479.38
2023-01-20T07:29:31.548Z,97480.69
2023-01-20T07:31:57.919Z,97481.22
2023-01-20T07:34:24.217Z,97483.63
2023-01-20T07:36:50.728Z,97485.63
2023-01-20T07:39:17.004Z,97485.19
2023-01-20T07:41:43.226Z,97495.97
2023-01-20T07:44:09.504Z,97495.16
2023-01-20T07:46:35.801Z,97496.78
2023-01-20T07:49:02.095Z,97501.09
2023-01-20T07:51:28.439Z,97498.63
2023-01-20T07:53:54.749Z,97495.00
2023-01-20T07:56:21.011Z,97502.84
2023-01-20T07:58:47.374Z,97504.59
2023-01-20T08:01:14.857Z,97512.69
2023-01-20T08:03:41.966Z,97503.22
2023-01-20T08:06:08.248Z,97509.91
2023-01-20T08:08:34.518Z,97516.34
2023-01-20T08:11:01.050Z,97518.09
2023-01-20T08:13:27.342Z,97514.69
2023-01-20T08:15:53.922Z,97516.84
2023-01-20T08:18:20.155Z,97513.09
2023-01-20T08:20:47.448Z,97521.59
2023-01-20T08:23:13.972Z,97523.25
2023-01-20T08:25:40.471Z,97529.31
2023-01-20T08:28:06.740Z,97530.06
2023-01-20T08:30:36.193Z,97531.63
2023-01-20T08:33:05.513Z,97535.00
2023-01-20T08:35:39.906Z,97527.19
2023-01-20T08:38:20.103Z,97532.44
2023-01-20T08:40:53.671Z,97536.38
2023-01-20T08:43:37.256Z,97548.31
2023-01-20T08:46:35.489Z,97552.44
2023-01-20T08:49:06.335Z,97544.41
2023-01-20T08:51:45.981Z,97549.34
2023-01-20T09:15:39.468Z,97565.53
2023-01-20T09:18:06.543Z,97567.13
2023-01-20T09:20:33.024Z,97562.84
2023-01-20T09:22:59.858Z,97567.69
2023-01-20T09:25:27.062Z,97571.72
2023-01-20T09:27:53.857Z,97567.19
2023-01-20T09:30:21.103Z,97573.03
2023-01-20T09:32:47.493Z,97577.78
2023-01-20T09:35:15.801Z,97578.34
2023-01-20T09:37:42.549Z,97581.06
2023-01-20T09:40:09.164Z,97586.41
2023-01-20T09:42:35.832Z,97590.44
2023-01-20T09:45:03.638Z,97590.19
2023-01-20T09:47:31.312Z,97595.28
2023-01-20T09:49:58.097Z,97601.47
2023-01-20T09:52:24.716Z,97608.50
2023-01-20T09:54:51.240Z,97598.63
2023-01-20T09:57:20.598Z,97608.00
2023-01-20T09:59:50.728Z,97608.00
2023-01-20T10:02:17.177Z,97604.84
2023-01-20T10:04:44.161Z,97604.31
2023-01-20T10:07:13.884Z,97601.97
2023-01-20T10:09:40.536Z,97605.69
2023-01-20T10:12:07.124Z,97608.66
2023-01-20T10:14:34.671Z,97614.31
2023-01-20T10:17:01.781Z,97609.22
2023-01-20T10:19:30.522Z,97618.00
2023-01-20T10:21:57.835Z,97616.72
2023-01-20T10:24:25.126Z,97617.53
2023-01-20T10:26:53.749Z,97616.72
2023-01-20T10:29:21.132Z,97617.53
2023-01-20T10:31:49.301Z,97626.31
2023-01-20T10:34:16.708Z,97625.53
2023-01-20T10:36:43.837Z,97621.53
2023-01-20T10:39:11.306Z,97635.19
2023-01-20T10:41:38.066Z,97624.22
2023-01-20T10:44:06.527Z,97629.84
2023-01-20T10:46:33.459Z,97627.50
2023-01-20T10:48:59.896Z,97635.50
2023-01-20T10:51:26.341Z,97637.09
2023-01-20T10:53:52.940Z,97637.38
2023-01-20T10:56:19.630Z,97641.44
2023-01-20T10:58:46.630Z,97649.19
2023-01-20T11:01:16.825Z,97654.28
2023-01-20T11:03:43.913Z,97653.22
2023-01-20T11:06:10.438Z,97650.31
2023-01-20T11:08:36.827Z,97654.88
2023-01-20T11:11:04.025Z,97641.38
2023-01-20T11:13:30.420Z,97658.75
2023-01-20T11:15:56.752Z,97655.56
2023-01-20T11:18:23.204Z,97659.78
2023-01-20T11:20:49.915Z,97662.78
2023-01-20T11:23:16.890Z,97673.25
2023-01-20T11:25:43.596Z,97668.22
2023-01-20T11:28:10.391Z,97666.13
2023-01-20T11:30:36.753Z,97669.09
2023-01-20T11:33:03.855Z,97672.31
2023-01-20T11:35:30.240Z,97673.69
2023-01-20T11:37:56.532Z,97689.19
2023-01-20T11:40:25.800Z,97679.06
2023-01-20T11:42:52.106Z,97686.00
2023-01-20T11:45:21.601Z,97684.16
2023-01-20T11:53:23.967Z,97695.19
2023-01-20T11:55:50.306Z,97698.16
2023-01-20T11:58:16.822Z,97695.22
2023-01-20T12:00:43.953Z,97702.72
2023-01-20T12:03:10.213Z,97704.34
2023-01-20T12:05:37.876Z,97701.41
2023-01-20T12:08:04.781Z,97706.50
2023-01-20T12:10:31.888Z,97708.13
2023-01-20T12:12:58.261Z,97705.47
2023-01-20T12:15:24.534Z,97714.47
2023-01-20T12:17:51.392Z,97717.72
2023-01-20T12:20:18.097Z,97722.53
2023-01-20T12:22:44.671Z,97727.88
2023-01-20T12:25:11.327Z,97720.94
2023-01-20T12:27:37.556Z,97719.03
2023-01-20T12:30:03.784Z,97719.81
2023-01-20T12:32:30.511Z,97722.50
2023-01-20T12:34:58.698Z,97722.22
2023-01-20T12:37:25.930Z,97725.69
2023-01-20T12:39:52.154Z,97721.94
2023-01-20T12:42:18.633Z,97726.47
2023-01-20T12:44:45.616Z,97728.09
2023-01-20T12:47:11.965Z,97724.88
2023-01-20T12:49:40.284Z,97723.75
2023-01-20T12:52:06.595Z,97731.53
2023-01-20T12:54:47.152Z,97730.50
2023-01-20T12:57:14.808Z,97739.56
2023-01-20T12:59:41.243Z,97746.84
2023-01-20T13:02:07.449Z,97740.38
2023-01-20T13:04:36.843Z,97746.28
2023-01-20T13:07:03.953Z,97741.63
2023-01-20T13:09:30.184Z,97738.59
2023-01-20T13:11:56.408Z,97742.28
2023-01-20T13:14:22.664Z,97746.25
2023-01-20T13:16:49.012Z,97741.44
2023-01-20T13:19:15.245Z,97751.31
2023-01-20T13:21:42.480Z,97741.69
2023-01-20T13:24:08.742Z,97746.22
2023-01-20T13:26:35.252Z,97755.84
2023-01-20T13:29:01.470Z,97755.59
2023-01-20T13:31:27.976Z,97762.53
2023-01-20T13:33:54.914Z,97758.00
2023-01-20T13:36:21.190Z,97764.16
2023-01-20T13:38:47.535Z,97768.69
2023-01-20T13:41:13.730Z,97763.91
2023-01-20T13:43:41.001Z,97765.50
2023-01-20T13:46:07.389Z,97768.75
2023-01-20T13:48:33.687Z,97773.88
2023-01-20T13:50:59.919Z,97771.53
2023-01-20T13:53:27.080Z,97779.53
2023-01-20T13:55:53.613Z,97783.28
2023-01-20T13:58:19.811Z,97781.09
2023-01-20T14:00:46.132Z,97782.41
2023-01-20T14:03:12.338Z,97780.81
2023-01-20T14:05:38.594Z,97784.25
2023-01-20T14:08:04.842Z,97789.03
2023-01-20T14:10:31.483Z,97778.88
2023-01-20T14:12:57.944Z,97783.66
2023-01-20T14:15:24.489Z,97792.41
2023-01-20T14:17:51.551Z,97786.22
2023-01-20T14:20:18.003Z,97790.44
2023-01-20T14:22:45.427Z,97794.66
2023-01-20T14:25:11.784Z,97791.69
2023-01-20T14:27:38.039Z,97798.56
2023-01-20T14:30:04.885Z,97800.13
2023-01-20T14:32:31.140Z,97804.09
2023-01-20T14:34:57.341Z,97801.13
2023-01-20T14:37:23.784Z,97811.72
2023-01-20T14:39:51.289Z,97796.88
2023-01-20T14:42:17.618Z,97814.56
2023-01-20T14:44:43.898Z,97815.06
2023-01-20T14:47:10.881Z,97821.69
2023-01-20T14:49:37.101Z,97820.31
2023-01-20T14:52:03.434Z,97826.72
2023-01-20T14:54:29.705Z,97831.94
2023-01-20T14:56:55.944Z,97827.09
2023-01-20T14:59:22.407Z,97834.53
2023-01-20T15:01:48.651Z,97839.31
2023-01-20T15:04:15.200Z,97840.38
2023-01-20T15:06:41.501Z,97851.03
2023-01-20T15:09:08.531Z,97859.09
2023-01-20T15:11:34.839Z,97858.50
2023-01-20T15:19:52.637Z,97884.63
2023-01-20T15:22:19.253Z,97887.66
2023-01-20T15:24:45.736Z,97892.88
2023-01-20T15:27:12.001Z,97903.94
2023-01-20T15:29:38.228Z,97912.34
2023-01-20T15:32:05.323Z,97920.19
2023-01-20T15:34:31.579Z,97920.75
2023-01-20T15:36:57.813Z,97925.28
2023-01-20T15:39:26.997Z,97931.44
2023-01-20T15:41:53.223Z,97935.38
2023-01-20T15:44:19.519Z,97935.63
2023-01-20T15:46:46.502Z,97943.59
2023-01-20T15:49:12.710Z,97942.47
2023-01-20T15:51:38.912Z,97941.34
2023-01-20T15:54:05.195Z,97942.84
2023-01-20T15:56:31.493Z,97944.31
2023-01-20T15:58:57.716Z,97951.13
2023-01-20T16:01:24.874Z,97951.28
2023-01-20T16:03:51.680Z,97953.06
2023-01-20T16:06:18.619Z,97964.50
2023-01-20T16:08:44.819Z,97966.84
2023-01-20T16:11:13.373Z,97965.69
2023-01-20T16:13:39.678Z,97972.00
2023-01-20T16:16:06.041Z,97969.00
2023-01-20T16:18:32.358Z,97973.78
2023-01-20T16:20:58.570Z,97972.41
2023-01-20T16:23:24.788Z,97977.41
2023-01-20T16:25:51.036Z,97979.47
2023-01-20T16:28:17.332Z,97983.47
2023-01-20T16:30:43.626Z,97986.34
2023-01-20T16:33:09.931Z,97988.47
2023-01-20T16:35:36.142Z,97984.41
2023-01-20T16:38:04.182Z,97982.81
2023-01-20T16:40:31.259Z,97991.84
2023-01-20T16:42:59.659Z,97985.69
2023-01-20T16:45:26.086Z,97987.81
2023-01-20T16:47:55.803Z,97994.41
2023-01-20T16:50:22.137Z,98001.59
2023-01-20T16:52:48.451Z,98001.84
2023-01-20T16:55:14.841Z,98004.75
2023-01-20T16:57:41.059Z,98014.84
2023-01-20T17:00:07.435Z,98008.69
2023-01-20T17:02:33.784Z,98011.84
2023-01-20T17:05:00.966Z,98016.41
2023-01-20T17:07:27.350Z,98019.28
2023-01-20T17:09:53.630Z,98016.84
2023-01-20T17:12:20.733Z,98021.41
2023-01-20T17:14:46.991Z,98035.19
2023-01-20T17:17:13.227Z,98026.41
2023-01-20T17:19:39.763Z,98031.16
2023-01-20T17:22:06.046Z,98028.72
2023-01-20T17:24:32.268Z,98030.81
2023-01-20T17:26:58.540Z,98036.41
2023-01-20T17:29:26.332Z,98036.59
2023-01-20T17:31:52.634Z,98043.81
2023-01-20T17:34:18.864Z,98044.06
2023-01-20T17:36:45.862Z,98037.34
2023-01-20T17:39:12.120Z,98039.41
2023-01-20T17:41:38.411Z,98052.41
2023-01-20T17:44:04.704Z,98041.16
2023-01-20T17:46:31.669Z,98052.91
2023-01-20T17:48:58.246Z,98060.78
2023-01-20T17:51:24.545Z,98062.25
2023-01-20T17:53:51.315Z,98061.09
2023-01-20T17:56:18.386Z,98068.72
2023-01-20T17:58:44.714Z,98070.78
2023-01-20T18:01:11.003Z,98074.44
2023-01-20T18:03:37.333Z,98080.78
2023-01-20T18:06:03.594Z,98090.28
2023-01-20T18:08:29.873Z,98089.06
2023-01-20T18:10:56.207Z,98092.16
2023-01-20T18:13:22.513Z,98097.72
2023-01-20T18:15:49.019Z,98105.31
2023-01-20T18:18:15.700Z,98115.38
2023-01-20T18:20:41.966Z,98109.94
2023-01-20T18:23:08.722Z,98109.06
2023-01-20T18:25:34.937Z,98117.72
2023-01-20T18:28:01.227Z,98118.84
2023-01-20T18:30:27.451Z,98129.94
2023-01-20T18:32:54.098Z,98133.06
2023-01-20T18:35:20.403Z,98135.31
2023-01-20T18:37:46.631Z,98132.22
2023-01-20T18:40:12.918Z,98133.91
2023-01-20T18:42:40.756Z,98137.22
2023-01-20T18:45:06.995Z,98134.63
2023-01-20T18:47:33.277Z,98137.34
2023-01-20T18:49:59.465Z,98143.03
2023-01-20T18:52:26.374Z,98147.94
2023-01-20T18:54:52.650Z,98155.25
2023-01-20T18:57:18.891Z,98152.06
2023-01-20T18:59:45.130Z,98151.03
2023-01-20T19:02:11.376Z,98145.09
2023-01-20T19:04:37.590Z,98150.38
2023-01-20T19:07:04.192Z,98148.69
2023-01-20T19:09:30.433Z,98144.31
2023-01-20T19:11:56.685Z,98142.88
2023-01-20T19:14:23.330Z,98147.84
2023-01-20T19:16:50.350Z,98139.66
2023-01-20T19:19:16.580Z,98147.28
2023-01-20T19:21:43.422Z,98142.00
2023-01-20T19:24:09.695Z,98146.13
2023-01-20T19:26:36.390Z,98143.88
2023-01-20T19:29:02.677Z,98146.47
2023-01-20T19:31:29.307Z,98152.50
2023-01-20T19:33:56.131Z,98156.94
2023-01-20T19:36:22.343Z,98172.88
2023-01-20T19:38:48.783Z,98161.78
2023-01-20T19:41:15.050Z,98169.13
2023-01-20T19:43:41.381Z,98171.13
2023-01-20T19:46:07.603Z,98183.03
2023-01-20T19:48:33.786Z,98186.63
2023-01-20T19:51:00.277Z,98184.91
2023-01-20T19:53:26.575Z,98188.53
2023-01-20T19:55:52.783Z,98189.44
2023-01-20T19:58:19.032Z,98193.66
2023-01-20T20:00:45.255Z,98189.00
2023-01-20T20:03:11.779Z,98192.38
2023-01-20T20:05:38.458Z,98195.41
2023-01-20T20:08:04.741Z,98199.78
2023-01-20T20:10:31.142Z,98210.47
2023-01-20T20:12:57.496Z,98211.25
2023-01-20T20:15:24.256Z,98217.09
2023-01-20T20:17:50.538Z,98209.84
2023-01-20T20:20:17.029Z,98222.09
2023-01-20T20:22:43.507Z,98219.38
2023-01-20T20:25:11.370Z,98212.75
2023-01-20T20:27:38.515Z,98218.75
2023-01-20T20:30:04.937Z,98231.72
2023-01-20T20:32:31.161Z,98235.06
2023-01-20T20:34:58.097Z,98227.13
2023-01-20T20:37:24.367Z,98235.22
2023-01-20T20:39:50.763Z,98235.00
2023-01-20T20:42:17.030Z,98226.19
2023-01-20T20:44:43.500Z,98238.16
2023-01-20T20:47:09.778Z,98238.31
2023-01-20T20:49:36.116Z,98247.28
2023-01-20T20:52:04.492Z,98242.31
2023-01-20T20:54:31.052Z,98247.00
2023-01-20T20:56:57.304Z,98249.25
2023-01-20T20:59:23.533Z,98259.41
2023-01-20T21:01:49.849Z,98255.16
2023-01-20T21:04:16.119Z,98255.78
2023-01-20T21:06:42.339Z,98256.22
2023-01-20T21:09:08.609Z,98266.47
2023-01-20T21:11:34.967Z,98266.22
2023-01-20T21:14:04.585Z,98264.81
2023-01-20T21:16:31.386Z,98270.28
2023-01-20T21:18:57.910Z,98267.19
2023-01-20T21:21:24.639Z,98275.97
2023-01-20T21:23:50.901Z,98276.31
2023-01-20T21:26:17.930Z,98275.97
2023-01-20T21:28:44.580Z,98287.09
2023-01-20T21:31:10.873Z,98284.84
2023-01-20T21:33:38.349Z,98293.53
2023-01-20T21:36:04.530Z,98286.69
2023-01-20T21:38:31.747Z,98287.25
2023-01-20T21:40:58.094Z,98295.38
2023-01-20T21:43:24.296Z,98296.03
2023-01-20T21:45:50.515Z,98297.16
2023-01-20T21:48:16.749Z,98305.75
2023-01-20T21:50:43.169Z,98299.72
2023-01-20T21:53:09.491Z,98304.34
2023-01-20T21:55:35.686Z,98310.25
2023-01-20T21:58:02.115Z,98311.41
2023-01-20T22:00:28.881Z,98309.88
2023-01-20T22:02:55.731Z,98311.53
2023-01-20T22:05:21.968Z,98312.88
2023-01-20T22:07:48.530Z,98318.31
2023-01-20T22:10:15.746Z,98324.81
2023-01-20T22:12:42.131Z,98323.31
2023-01-20T22:15:08.666Z,98333.75
2023-01-20T22:17:35.758Z,98344.53
2023-01-20T22:20:01.989Z,98335.56
2023-01-20T22:22:28.496Z,98335.06
2023-01-20T22:24:55.783Z,98339.34
2023-01-20T22:27:21.996Z,98351.78
2023-01-20T22:29:49.154Z,98343.25
2023-01-20T22:32:16.127Z,98353.94
2023-01-20T22:34:42.594Z,98350.22
2023-01-20T22:37:08.829Z,98357.19
2023-01-20T22:39:35.163Z,98357.19
2023-01-20T22:42:04.645Z,98360.91
2023-01-20T22:44:30.896Z,98355.81
2023-01-20T22:46:57.319Z,98362.78
2023-01-20T22:49:24.252Z,98369.50
2023-01-20T22:51:51.367Z,98366.59
2023-01-20T22:54:18.051Z,98374.16
2023-01-20T22:56:44.569Z,98377.16
2023-01-20T22:59:11.555Z,98379.59
2023-01-20T23:01:38.078Z,98377.72
2023-01-20T23:04:04.467Z,98378.28
2023-01-20T23:06:30.694Z,98385.00
2023-01-20T23:08:58.103Z,98377.25
2023-01-20T23:11:25.331Z,98385.84
2023-01-20T23:13:52.436Z,98386.16
2023-01-20T23:16:20.163Z,98388.59
2023-01-20T23:18:46.533Z,98392.06
2023-01-20T23:21:14.129Z,98395.47
2023-01-20T23:23:40.580Z,98398.16
2023-01-20T23:26:07.053Z,98398.06
2023-01-20T23:28:33.268Z,98391.81
2023-01-20T23:31:00.530Z,98399.75
2023-01-20T23:33:27.374Z,98403.84
2023-01-20T23:35:54.736Z,98402.75
2023-01-20T23:38:21.327Z,98410.41
2023-01-20T23:40:47.508Z,98409.94
2023-01-20T23:43:13.907Z,98407.44
2023-01-20T23:45:40.204Z,98403.25
2023-01-20T23:48:06.724Z,98409.34
2023-01-20T23:50:32.984Z,98411.88
2023-01-20T23:52:59.204Z,98411.72
2023-01-20T23:55:26.389Z,98416.53
2023-01-20T23:57:52.651Z,98428.31
